Waterbury-Oxford Information

FAA: OXC - ICAO: KOXC

Waterbury-Oxford (Airport) Location

State Connecticut
County New Haven
City Oxford
Waterbury-Oxford (Airport) is 3 miles north of Oxford, CT.
Latitude 41-28-41.8100N
Longitude 073-08-06.6570W
Elevation 730ft

Waterbury-Oxford METARs

METAR KOXC 070751Z AUTO 28006KT 10SM CLR 02/M06 A2993 RMK AO2 SLP151 T00171061 FZRANO
Altimeter 29.93"
Temperature 1.7°C (35.1°F)
Wind 280° at 6KT
Clouds Skies are clear.
Visibility 10.0mi
Time observed: 2021-12-07T07:51:00Z

Waterbury-Oxford (Airport) Details

Status Operational
Activation December 1969
Ownership Public
Usage Public
Chart NEW YORK
ATC on-site Yes
Beacon schedule sunset-sunrise
Beacon color clear green

Waterbury-Oxford (Airport) Contacts

Owner CONNECTICUT AIRPORT AUTHORITY
Owner address SUITE 160, 334 ELLA GRASSO TURNPIKE, WINDSOR LOCKS, CT 06096
Owner phone 860-292-2000
Manager TODD J. MACHNIK
Manager address 126 MILE CREEK ROAD, OLD LYME, CT 06371
Manager phone 203-434-1330

Waterbury-Oxford Radio Frequencies

Waterbury-Oxford (Airport) Radio Frequencies

UNICOM 122.95
Common traffic advisory frequency (CTAF) 118.475